Jask, Iran
Current Conditions -  °F | °C
As of 2:00 PM on Saturday 20 Dec 2014 (Local Time) from OMFJ Reporting Station
Few Clouds Few Clouds  
Wind Chill: 77°   Ceiling: Unl
Heat Index: 79°   Visibility: 4mi
Dew Point: 61°   Wind: 9mph
Humidity: 57%   Direction: 100°E
Pressure: 30.03"   Gusts: NA
Location:  25.65°N, 57.78°E
Report Text: OMFJ 201100Z 10008KT 080V160 7000 FEW020 25/16 Q1017 A3004
Loading
Personal Weather Stations






























Interactive Weather Map New forecast layout! Learn more

10-Day Weather Forecast

Advertisements
Track Severe Weather on mobile